sensor_id;sensor_type;location;lat;lon;timestamp;temperature;humidity
33881;DHT22;20172;47.530;10.256;2023-09-08T00:05:22;19.60;99.90
33881;DHT22;20172;47.530;10.256;2023-09-08T00:14:18;19.50;99.90
33881;DHT22;20172;47.530;10.256;2023-09-08T00:17:20;19.40;99.90
33881;DHT22;20172;47.530;10.256;2023-09-08T00:29:34;19.20;99.90
33881;DHT22;20172;47.530;10.256;2023-09-08T00:38:14;19.30;99.90
33881;DHT22;20172;47.530;10.256;2023-09-08T00:49:54;19.30;99.90
33881;DHT22;20172;47.530;10.256;2023-09-08T00:52:31;19.30;99.90
33881;DHT22;20172;47.530;10.256;2023-09-08T00:55:37;19.20;99.90
33881;DHT22;20172;47.530;10.256;2023-09-08T00:58:22;19.00;99.90
33881;DHT22;20172;47.530;10.256;2023-09-08T01:01:06;18.90;99.90
33881;DHT22;20172;47.530;10.256;2023-09-08T01:03:52;18.90;99.90
33881;DHT22;20172;47.530;10.256;2023-09-08T01:10:03;18.80;99.90
33881;DHT22;20172;47.530;10.256;2023-09-08T01:15:52;18.90;99.90
33881;DHT22;20172;47.530;10.256;2023-09-08T01:19:19;18.90;99.90
33881;DHT22;20172;47.530;10.256;2023-09-08T01:28:11;18.80;99.90
33881;DHT22;20172;47.530;10.256;2023-09-08T01:31:09;18.80;99.90
33881;DHT22;20172;47.530;10.256;2023-09-08T01:33:52;18.90;99.90
33881;DHT22;20172;47.530;10.256;2023-09-08T01:36:40;18.80;99.90
33881;DHT22;20172;47.530;10.256;2023-09-08T01:48:21;18.40;99.90
33881;DHT22;20172;47.530;10.256;2023-09-08T01:50:57;18.60;99.90
33881;DHT22;20172;47.530;10.256;2023-09-08T02:03:09;18.40;99.90
33881;DHT22;20172;47.530;10.256;2023-09-08T02:06:25;18.40;99.90
33881;DHT22;20172;47.530;10.256;2023-09-08T02:12:56;18.30;99.90
33881;DHT22;20172;47.530;10.256;2023-09-08T02:16:03;18.30;99.90
33881;DHT22;20172;47.530;10.256;2023-09-08T02:22:30;18.20;99.90
33881;DHT22;20172;47.530;10.256;2023-09-08T02:25:30;18.20;99.90
33881;DHT22;20172;47.530;10.256;2023-09-08T02:28:20;18.30;99.90
33881;DHT22;20172;47.530;10.256;2023-09-08T02:31:05;18.30;99.90
33881;DHT22;20172;47.530;10.256;2023-09-08T02:39:28;18.30;99.90
33881;DHT22;20172;47.530;10.256;2023-09-08T02:45:21;18.40;99.90
33881;DHT22;20172;47.530;10.256;2023-09-08T02:50:41;18.20;99.90
33881;DHT22;20172;47.530;10.256;2023-09-08T02:56:31;18.20;99.90
33881;DHT22;20172;47.530;10.256;2023-09-08T02:59:50;18.20;99.90
33881;DHT22;20172;47.530;10.256;2023-09-08T03:02:51;18.10;99.90
33881;DHT22;20172;47.530;10.256;2023-09-08T03:05:56;17.90;99.90
33881;DHT22;20172;47.530;10.256;2023-09-08T03:11:57;17.90;99.90
33881;DHT22;20172;47.530;10.256;2023-09-08T03:18:28;17.90;99.90
33881;DHT22;20172;47.530;10.256;2023-09-08T03:39:10;17.70;99.90
33881;DHT22;20172;47.530;10.256;2023-09-08T03:42:21;17.80;99.90
33881;DHT22;20172;47.530;10.256;2023-09-08T03:48:28;17.90;99.90
33881;DHT22;20172;47.530;10.256;2023-09-08T03:54:04;17.80;99.90
33881;DHT22;20172;47.530;10.256;2023-09-08T03:57:06;17.80;99.90
33881;DHT22;20172;47.530;10.256;2023-09-08T04:00:16;17.80;99.90
33881;DHT22;20172;47.530;10.256;2023-09-08T04:05:57;17.60;99.90
33881;DHT22;20172;47.530;10.256;2023-09-08T04:09:07;17.60;99.90
33881;DHT22;20172;47.530;10.256;2023-09-08T04:11:54;17.40;99.90
33881;DHT22;20172;47.530;10.256;2023-09-08T04:14:42;17.40;99.90
33881;DHT22;20172;47.530;10.256;2023-09-08T04:20:34;17.50;99.90
33881;DHT22;20172;47.530;10.256;2023-09-08T04:23:24;17.40;99.90
33881;DHT22;20172;47.530;10.256;2023-09-08T04:26:45;17.40;99.90
33881;DHT22;20172;47.530;10.256;2023-09-08T04:32:51;17.40;99.90
33881;DHT22;20172;47.530;10.256;2023-09-08T04:38:45;17.30;99.90
33881;DHT22;20172;47.530;10.256;2023-09-08T04:44:51;17.30;99.90
33881;DHT22;20172;47.530;10.256;2023-09-08T04:47:35;17.30;99.90
33881;DHT22;20172;47.530;10.256;2023-09-08T04:53:22;17.10;99.90
33881;DHT22;20172;47.530;10.256;2023-09-08T04:59:16;17.30;99.90
33881;DHT22;20172;47.530;10.256;2023-09-08T05:05:19;17.50;99.90
33881;DHT22;20172;47.530;10.256;2023-09-08T05:08:20;17.50;99.90
33881;DHT22;20172;47.530;10.256;2023-09-08T05:10:49;17.70;99.90
33881;DHT22;20172;47.530;10.256;2023-09-08T05:25:42;17.60;99.90
33881;DHT22;20172;47.530;10.256;2023-09-08T05:28:37;17.60;99.90
33881;DHT22;20172;47.530;10.256;2023-09-08T05:34:47;17.70;99.90
33881;DHT22;20172;47.530;10.256;2023-09-08T05:37:46;17.80;99.90
33881;DHT22;20172;47.530;10.256;2023-09-08T05:46:37;18.00;99.90
33881;DHT22;20172;47.530;10.256;2023-09-08T05:59:06;18.40;99.90
33881;DHT22;20172;47.530;10.256;2023-09-08T06:11:05;18.40;99.90
33881;DHT22;20172;47.530;10.256;2023-09-08T06:13:30;18.30;99.90
33881;DHT22;20172;47.530;10.256;2023-09-08T06:27:56;18.70;99.90
33881;DHT22;20172;47.530;10.256;2023-09-08T06:37:18;19.30;99.90
33881;DHT22;20172;47.530;10.256;2023-09-08T06:40:43;19.60;99.90
33881;DHT22;20172;47.530;10.256;2023-09-08T07:02:16;20.70;99.90
33881;DHT22;20172;47.530;10.256;2023-09-08T07:23:52;21.60;99.90
33881;DHT22;20172;47.530;10.256;2023-09-08T07:38:33;22.30;99.90
33881;DHT22;20172;47.530;10.256;2023-09-08T07:44:48;22.50;99.90
33881;DHT22;20172;47.530;10.256;2023-09-08T07:50:28;22.90;99.90
33881;DHT22;20172;47.530;10.256;2023-09-08T07:53:31;23.10;99.90
33881;DHT22;20172;47.530;10.256;2023-09-08T07:59:32;23.20;99.90
33881;DHT22;20172;47.530;10.256;2023-09-08T08:02:25;23.40;99.90
33881;DHT22;20172;47.530;10.256;2023-09-08T08:04:58;23.40;99.90
33881;DHT22;20172;47.530;10.256;2023-09-08T08:13:43;23.90;99.90
33881;DHT22;20172;47.530;10.256;2023-09-08T08:16:33;23.90;99.90
33881;DHT22;20172;47.530;10.256;2023-09-08T08:19:49;23.90;99.90
33881;DHT22;20172;47.530;10.256;2023-09-08T08:25:40;24.30;99.90
33881;DHT22;20172;47.530;10.256;2023-09-08T08:28:32;24.40;99.90
33881;DHT22;20172;47.530;10.256;2023-09-08T08:34:53;24.60;99.90
33881;DHT22;20172;47.530;10.256;2023-09-08T08:44:08;24.90;99.90
33881;DHT22;20172;47.530;10.256;2023-09-08T08:46:39;25.00;99.90
33881;DHT22;20172;47.530;10.256;2023-09-08T08:49:15;25.20;99.90
33881;DHT22;20172;47.530;10.256;2023-09-08T08:55:20;25.30;99.90
33881;DHT22;20172;47.530;10.256;2023-09-08T09:01:27;25.60;99.90
33881;DHT22;20172;47.530;10.256;2023-09-08T09:04:11;25.70;99.90
33881;DHT22;20172;47.530;10.256;2023-09-08T09:10:31;25.90;99.90
33881;DHT22;20172;47.530;10.256;2023-09-08T09:17:10;26.40;99.90
33881;DHT22;20172;47.530;10.256;2023-09-08T09:23:15;26.60;99.90
33881;DHT22;20172;47.530;10.256;2023-09-08T09:29:34;26.70;99.90
33881;DHT22;20172;47.530;10.256;2023-09-08T09:38:43;27.20;99.90
33881;DHT22;20172;47.530;10.256;2023-09-08T09:45:10;27.20;99.90
33881;DHT22;20172;47.530;10.256;2023-09-08T09:51:15;27.30;99.90
33881;DHT22;20172;47.530;10.256;2023-09-08T09:54:20;27.50;99.90
33881;DHT22;20172;47.530;10.256;2023-09-08T09:57:31;27.60;99.90
33881;DHT22;20172;47.530;10.256;2023-09-08T10:03:04;27.80;99.90
33881;DHT22;20172;47.530;10.256;2023-09-08T10:05:31;27.90;99.90
33881;DHT22;20172;47.530;10.256;2023-09-08T10:07:57;28.00;99.90
33881;DHT22;20172;47.530;10.256;2023-09-08T10:10:23;28.20;99.90
33881;DHT22;20172;47.530;10.256;2023-09-08T10:13:01;28.20;99.90
33881;DHT22;20172;47.530;10.256;2023-09-08T10:15:27;28.30;99.90
33881;DHT22;20172;47.530;10.256;2023-09-08T10:17:56;28.40;99.90
33881;DHT22;20172;47.530;10.256;2023-09-08T10:20:27;28.60;99.90
33881;DHT22;20172;47.530;10.256;2023-09-08T10:23:01;28.70;99.90
33881;DHT22;20172;47.530;10.256;2023-09-08T10:25:34;28.80;99.90
33881;DHT22;20172;47.530;10.256;2023-09-08T10:28:01;28.80;99.90
33881;DHT22;20172;47.530;10.256;2023-09-08T10:30:27;28.90;99.90
33881;DHT22;20172;47.530;10.256;2023-09-08T10:32:53;29.20;99.90
33881;DHT22;20172;47.530;10.256;2023-09-08T10:35:24;29.30;99.90
33881;DHT22;20172;47.530;10.256;2023-09-08T10:46:27;29.80;99.90
33881;DHT22;20172;47.530;10.256;2023-09-08T10:48:53;29.90;99.90
33881;DHT22;20172;47.530;10.256;2023-09-08T10:51:19;30.00;99.90
33881;DHT22;20172;47.530;10.256;2023-09-08T10:53:47;30.10;99.90
33881;DHT22;20172;47.530;10.256;2023-09-08T10:56:16;30.20;99.90
33881;DHT22;20172;47.530;10.256;2023-09-08T10:58:42;30.30;99.90
33881;DHT22;20172;47.530;10.256;2023-09-08T11:01:18;30.50;99.90
33881;DHT22;20172;47.530;10.256;2023-09-08T11:03:45;30.60;99.90
33881;DHT22;20172;47.530;10.256;2023-09-08T11:06:15;30.70;99.90
33881;DHT22;20172;47.530;10.256;2023-09-08T11:08:41;31.00;99.90
33881;DHT22;20172;47.530;10.256;2023-09-08T11:11:07;31.20;99.90
33881;DHT22;20172;47.530;10.256;2023-09-08T11:13:33;31.20;99.90
33881;DHT22;20172;47.530;10.256;2023-09-08T11:15:58;31.40;99.90
33881;DHT22;20172;47.530;10.256;2023-09-08T11:18:27;31.50;99.90
33881;DHT22;20172;47.530;10.256;2023-09-08T11:20:53;31.60;99.90
33881;DHT22;20172;47.530;10.256;2023-09-08T11:23:19;31.60;99.90
33881;DHT22;20172;47.530;10.256;2023-09-08T11:25:46;31.80;99.90
33881;DHT22;20172;47.530;10.256;2023-09-08T11:28:11;32.00;99.90
33881;DHT22;20172;47.530;10.256;2023-09-08T11:30:37;32.30;99.90
33881;DHT22;20172;47.530;10.256;2023-09-08T11:33:02;32.40;99.90
33881;DHT22;20172;47.530;10.256;2023-09-08T11:35:31;32.20;99.90
33881;DHT22;20172;47.530;10.256;2023-09-08T11:38:01;32.10;99.90
33881;DHT22;20172;47.530;10.256;2023-09-08T11:40:27;32.20;99.90
33881;DHT22;20172;47.530;10.256;2023-09-08T11:42:53;32.30;99.90
33881;DHT22;20172;47.530;10.256;2023-09-08T11:45:18;32.50;99.90
33881;DHT22;20172;47.530;10.256;2023-09-08T11:47:46;32.40;99.90
33881;DHT22;20172;47.530;10.256;2023-09-08T11:50:12;32.60;99.90
33881;DHT22;20172;47.530;10.256;2023-09-08T11:52:44;32.70;99.90
33881;DHT22;20172;47.530;10.256;2023-09-08T11:55:10;32.80;99.90
33881;DHT22;20172;47.530;10.256;2023-09-08T11:57:36;32.90;99.90
33881;DHT22;20172;47.530;10.256;2023-09-08T12:00:02;32.90;99.90
33881;DHT22;20172;47.530;10.256;2023-09-08T12:02:37;32.90;99.90
33881;DHT22;20172;47.530;10.256;2023-09-08T12:05:02;32.80;99.90
33881;DHT22;20172;47.530;10.256;2023-09-08T12:07:28;33.20;99.90
33881;DHT22;20172;47.530;10.256;2023-09-08T12:09:54;33.40;99.90
33881;DHT22;20172;47.530;10.256;2023-09-08T12:12:19;33.60;99.90
33881;DHT22;20172;47.530;10.256;2023-09-08T12:14:45;33.70;99.90
33881;DHT22;20172;47.530;10.256;2023-09-08T12:17:10;34.00;99.90
33881;DHT22;20172;47.530;10.256;2023-09-08T12:19:38;34.60;99.90
33881;DHT22;20172;47.530;10.256;2023-09-08T12:22:04;35.50;99.90
33881;DHT22;20172;47.530;10.256;2023-09-08T12:24:49;36.20;98.10
33881;DHT22;20172;47.530;10.256;2023-09-08T12:27:16;37.10;96.50
33881;DHT22;20172;47.530;10.256;2023-09-08T12:29:51;37.80;95.50
33881;DHT22;20172;47.530;10.256;2023-09-08T12:32:16;38.00;95.00
33881;DHT22;20172;47.530;10.256;2023-09-08T12:34:43;38.70;92.80
33881;DHT22;20172;47.530;10.256;2023-09-08T12:37:08;39.40;90.90
33881;DHT22;20172;47.530;10.256;2023-09-08T12:39:36;39.90;89.60
33881;DHT22;20172;47.530;10.256;2023-09-08T12:42:03;40.20;86.50
33881;DHT22;20172;47.530;10.256;2023-09-08T12:44:29;40.60;86.60
33881;DHT22;20172;47.530;10.256;2023-09-08T12:46:55;41.60;81.70
33881;DHT22;20172;47.530;10.256;2023-09-08T12:49:20;42.00;79.40
33881;DHT22;20172;47.530;10.256;2023-09-08T12:51:46;42.50;77.20
33881;DHT22;20172;47.530;10.256;2023-09-08T12:54:11;42.90;75.10
33881;DHT22;20172;47.530;10.256;2023-09-08T12:56:37;43.30;71.80
33881;DHT22;20172;47.530;10.256;2023-09-08T12:59:02;43.80;69.10
33881;DHT22;20172;47.530;10.256;2023-09-08T13:01:28;44.60;67.00
33881;DHT22;20172;47.530;10.256;2023-09-08T13:03:54;45.10;65.50
33881;DHT22;20172;47.530;10.256;2023-09-08T13:06:19;44.90;63.80
33881;DHT22;20172;47.530;10.256;2023-09-08T13:08:45;45.70;61.50
33881;DHT22;20172;47.530;10.256;2023-09-08T13:11:10;46.00;60.30
33881;DHT22;20172;47.530;10.256;2023-09-08T13:13:36;45.80;60.70
33881;DHT22;20172;47.530;10.256;2023-09-08T13:16:01;45.80;60.50
33881;DHT22;20172;47.530;10.256;2023-09-08T13:18:27;47.20;58.90
33881;DHT22;20172;47.530;10.256;2023-09-08T13:20:52;47.40;57.70
33881;DHT22;20172;47.530;10.256;2023-09-08T13:23:18;47.70;57.50
33881;DHT22;20172;47.530;10.256;2023-09-08T13:25:43;47.90;56.40
33881;DHT22;20172;47.530;10.256;2023-09-08T13:28:10;47.40;55.90
33881;DHT22;20172;47.530;10.256;2023-09-08T13:30:35;47.50;55.80
33881;DHT22;20172;47.530;10.256;2023-09-08T13:33:01;48.50;55.70
33881;DHT22;20172;47.530;10.256;2023-09-08T13:35:26;48.90;53.50
33881;DHT22;20172;47.530;10.256;2023-09-08T13:37:52;48.70;53.30
33881;DHT22;20172;47.530;10.256;2023-09-08T13:40:17;48.50;53.60
33881;DHT22;20172;47.530;10.256;2023-09-08T13:42:43;48.50;53.50
33881;DHT22;20172;47.530;10.256;2023-09-08T13:45:10;48.90;52.90
33881;DHT22;20172;47.530;10.256;2023-09-08T13:47:35;49.00;52.70
33881;DHT22;20172;47.530;10.256;2023-09-08T13:50:03;49.30;51.80
33881;DHT22;20172;47.530;10.256;2023-09-08T13:52:28;49.30;51.20
33881;DHT22;20172;47.530;10.256;2023-09-08T13:54:54;49.10;50.30
33881;DHT22;20172;47.530;10.256;2023-09-08T13:57:19;49.00;51.90
33881;DHT22;20172;47.530;10.256;2023-09-08T13:59:46;49.50;50.60
33881;DHT22;20172;47.530;10.256;2023-09-08T14:02:11;49.30;50.60
33881;DHT22;20172;47.530;10.256;2023-09-08T14:04:37;49.10;50.80
33881;DHT22;20172;47.530;10.256;2023-09-08T14:07:05;49.30;50.70
33881;DHT22;20172;47.530;10.256;2023-09-08T14:09:31;48.60;50.20
33881;DHT22;20172;47.530;10.256;2023-09-08T14:11:59;48.60;50.30
33881;DHT22;20172;47.530;10.256;2023-09-08T14:14:24;48.20;50.30
33881;DHT22;20172;47.530;10.256;2023-09-08T14:16:50;47.90;51.00
33881;DHT22;20172;47.530;10.256;2023-09-08T14:19:15;48.30;50.20
33881;DHT22;20172;47.530;10.256;2023-09-08T14:21:41;48.70;50.10
33881;DHT22;20172;47.530;10.256;2023-09-08T14:24:06;49.20;49.50
33881;DHT22;20172;47.530;10.256;2023-09-08T14:26:32;49.10;48.30
33881;DHT22;20172;47.530;10.256;2023-09-08T14:28:57;48.60;48.80
33881;DHT22;20172;47.530;10.256;2023-09-08T14:31:23;48.60;49.40
33881;DHT22;20172;47.530;10.256;2023-09-08T14:33:48;48.70;49.50
33881;DHT22;20172;47.530;10.256;2023-09-08T14:36:17;48.60;49.50
33881;DHT22;20172;47.530;10.256;2023-09-08T14:38:43;49.20;48.70
33881;DHT22;20172;47.530;10.256;2023-09-08T14:41:09;49.00;48.70
33881;DHT22;20172;47.530;10.256;2023-09-08T14:43:35;49.20;48.20
33881;DHT22;20172;47.530;10.256;2023-09-08T14:46:03;49.00;48.00
33881;DHT22;20172;47.530;10.256;2023-09-08T14:48:29;48.80;48.00
33881;DHT22;20172;47.530;10.256;2023-09-08T14:50:56;48.70;48.20
33881;DHT22;20172;47.530;10.256;2023-09-08T14:53:22;48.20;48.20
33881;DHT22;20172;47.530;10.256;2023-09-08T14:55:47;48.00;48.90
33881;DHT22;20172;47.530;10.256;2023-09-08T14:58:14;47.90;48.50
33881;DHT22;20172;47.530;10.256;2023-09-08T15:00:40;48.20;48.80
33881;DHT22;20172;47.530;10.256;2023-09-08T15:03:08;47.50;49.30
33881;DHT22;20172;47.530;10.256;2023-09-08T15:05:34;46.40;49.20
33881;DHT22;20172;47.530;10.256;2023-09-08T15:08:00;44.90;50.20
33881;DHT22;20172;47.530;10.256;2023-09-08T15:10:26;43.60;52.50
33881;DHT22;20172;47.530;10.256;2023-09-08T15:12:51;42.30;53.80
33881;DHT22;20172;47.530;10.256;2023-09-08T15:15:17;41.30;53.70
33881;DHT22;20172;47.530;10.256;2023-09-08T15:17:54;40.30;55.20
33881;DHT22;20172;47.530;10.256;2023-09-08T15:20:20;39.20;58.60
33881;DHT22;20172;47.530;10.256;2023-09-08T15:22:46;38.10;59.20
33881;DHT22;20172;47.530;10.256;2023-09-08T15:25:12;37.40;60.30
33881;DHT22;20172;47.530;10.256;2023-09-08T15:27:38;36.90;62.00
33881;DHT22;20172;47.530;10.256;2023-09-08T15:30:04;36.60;62.10
33881;DHT22;20172;47.530;10.256;2023-09-08T15:32:30;36.30;62.50
33881;DHT22;20172;47.530;10.256;2023-09-08T15:34:55;36.10;63.60
33881;DHT22;20172;47.530;10.256;2023-09-08T15:37:20;35.80;64.20
33881;DHT22;20172;47.530;10.256;2023-09-08T15:39:46;35.60;65.70
33881;DHT22;20172;47.530;10.256;2023-09-08T15:42:12;35.20;66.00
33881;DHT22;20172;47.530;10.256;2023-09-08T15:44:37;34.60;67.40
33881;DHT22;20172;47.530;10.256;2023-09-08T15:47:03;34.20;68.60
33881;DHT22;20172;47.530;10.256;2023-09-08T15:49:28;33.70;69.40
33881;DHT22;20172;47.530;10.256;2023-09-08T15:51:54;33.50;70.60
33881;DHT22;20172;47.530;10.256;2023-09-08T15:54:20;33.40;71.20
33881;DHT22;20172;47.530;10.256;2023-09-08T15:56:46;33.20;71.20
33881;DHT22;20172;47.530;10.256;2023-09-08T15:59:13;32.80;71.50
33881;DHT22;20172;47.530;10.256;2023-09-08T16:01:38;32.60;71.90
33881;DHT22;20172;47.530;10.256;2023-09-08T16:04:04;32.40;72.30
33881;DHT22;20172;47.530;10.256;2023-09-08T16:06:31;32.30;73.30
33881;DHT22;20172;47.530;10.256;2023-09-08T16:08:57;32.20;74.00
33881;DHT22;20172;47.530;10.256;2023-09-08T16:11:22;32.00;74.20
33881;DHT22;20172;47.530;10.256;2023-09-08T16:13:48;31.90;75.70
33881;DHT22;20172;47.530;10.256;2023-09-08T16:16:16;31.80;76.20
33881;DHT22;20172;47.530;10.256;2023-09-08T16:18:42;31.80;77.00
33881;DHT22;20172;47.530;10.256;2023-09-08T16:21:08;31.60;77.60
33881;DHT22;20172;47.530;10.256;2023-09-08T16:23:33;31.40;78.30
33881;DHT22;20172;47.530;10.256;2023-09-08T16:25:59;31.30;78.00
33881;DHT22;20172;47.530;10.256;2023-09-08T16:28:24;31.20;78.50
33881;DHT22;20172;47.530;10.256;2023-09-08T16:30:50;31.00;79.10
33881;DHT22;20172;47.530;10.256;2023-09-08T16:33:15;30.80;79.60
33881;DHT22;20172;47.530;10.256;2023-09-08T16:35:41;30.70;79.70
33881;DHT22;20172;47.530;10.256;2023-09-08T16:38:07;30.60;80.20
33881;DHT22;20172;47.530;10.256;2023-09-08T16:40:33;30.50;81.50
33881;DHT22;20172;47.530;10.256;2023-09-08T16:42:58;30.40;80.50
33881;DHT22;20172;47.530;10.256;2023-09-08T16:45:28;30.30;80.80
33881;DHT22;20172;47.530;10.256;2023-09-08T16:47:53;30.20;82.20
33881;DHT22;20172;47.530;10.256;2023-09-08T16:50:19;30.00;82.50
33881;DHT22;20172;47.530;10.256;2023-09-08T16:52:44;29.90;82.30
33881;DHT22;20172;47.530;10.256;2023-09-08T16:55:10;29.70;82.60
33881;DHT22;20172;47.530;10.256;2023-09-08T16:57:37;29.60;83.00
33881;DHT22;20172;47.530;10.256;2023-09-08T17:00:03;29.50;83.70
33881;DHT22;20172;47.530;10.256;2023-09-08T17:02:28;29.50;83.40
33881;DHT22;20172;47.530;10.256;2023-09-08T17:04:54;29.40;83.80
33881;DHT22;20172;47.530;10.256;2023-09-08T17:07:23;29.30;83.90
33881;DHT22;20172;47.530;10.256;2023-09-08T17:09:48;29.30;83.90
33881;DHT22;20172;47.530;10.256;2023-09-08T17:12:14;29.20;84.20
33881;DHT22;20172;47.530;10.256;2023-09-08T17:14:39;29.20;84.00
33881;DHT22;20172;47.530;10.256;2023-09-08T17:17:05;29.00;84.60
33881;DHT22;20172;47.530;10.256;2023-09-08T17:19:30;28.90;86.00
33881;DHT22;20172;47.530;10.256;2023-09-08T17:21:56;28.80;86.90
33881;DHT22;20172;47.530;10.256;2023-09-08T17:24:23;28.70;88.60
33881;DHT22;20172;47.530;10.256;2023-09-08T17:26:48;28.50;90.20
33881;DHT22;20172;47.530;10.256;2023-09-08T17:29:14;28.40;90.60
33881;DHT22;20172;47.530;10.256;2023-09-08T17:31:42;28.30;91.20
33881;DHT22;20172;47.530;10.256;2023-09-08T17:34:07;28.10;92.10
33881;DHT22;20172;47.530;10.256;2023-09-08T17:36:33;27.90;92.90
33881;DHT22;20172;47.530;10.256;2023-09-08T17:38:58;27.60;93.80
33881;DHT22;20172;47.530;10.256;2023-09-08T17:41:24;27.50;94.60
33881;DHT22;20172;47.530;10.256;2023-09-08T17:43:49;27.20;95.70
33881;DHT22;20172;47.530;10.256;2023-09-08T17:46:15;27.00;96.50
33881;DHT22;20172;47.530;10.256;2023-09-08T17:48:40;26.80;97.30
33881;DHT22;20172;47.530;10.256;2023-09-08T17:51:06;26.60;97.90
33881;DHT22;20172;47.530;10.256;2023-09-08T17:53:31;26.50;98.60
33881;DHT22;20172;47.530;10.256;2023-09-08T17:56:03;26.30;99.30
33881;DHT22;20172;47.530;10.256;2023-09-08T17:58:29;26.20;99.90
33881;DHT22;20172;47.530;10.256;2023-09-08T18:00:54;26.00;99.90
33881;DHT22;20172;47.530;10.256;2023-09-08T18:03:20;25.70;99.90
33881;DHT22;20172;47.530;10.256;2023-09-08T18:05:45;25.50;99.90
33881;DHT22;20172;47.530;10.256;2023-09-08T18:08:11;25.30;99.90
33881;DHT22;20172;47.530;10.256;2023-09-08T18:10:38;24.90;99.90
33881;DHT22;20172;47.530;10.256;2023-09-08T18:13:03;24.70;99.90
33881;DHT22;20172;47.530;10.256;2023-09-08T18:15:29;24.70;99.90
33881;DHT22;20172;47.530;10.256;2023-09-08T18:17:54;24.60;99.90
33881;DHT22;20172;47.530;10.256;2023-09-08T18:20:20;24.10;99.90
33881;DHT22;20172;47.530;10.256;2023-09-08T18:22:45;23.90;99.90
33881;DHT22;20172;47.530;10.256;2023-09-08T18:25:11;23.70;99.90
33881;DHT22;20172;47.530;10.256;2023-09-08T18:27:36;23.70;99.90
33881;DHT22;20172;47.530;10.256;2023-09-08T18:30:02;23.70;99.90
33881;DHT22;20172;47.530;10.256;2023-09-08T18:32:27;23.80;99.90
33881;DHT22;20172;47.530;10.256;2023-09-08T18:34:58;23.80;99.90
33881;DHT22;20172;47.530;10.256;2023-09-08T18:37:24;23.60;99.90
33881;DHT22;20172;47.530;10.256;2023-09-08T18:39:49;23.50;99.90
33881;DHT22;20172;47.530;10.256;2023-09-08T18:42:15;23.60;99.90
33881;DHT22;20172;47.530;10.256;2023-09-08T18:44:40;23.50;99.90
33881;DHT22;20172;47.530;10.256;2023-09-08T18:47:07;23.40;99.90
33881;DHT22;20172;47.530;10.256;2023-09-08T18:49:33;23.40;99.90
33881;DHT22;20172;47.530;10.256;2023-09-08T18:51:58;23.30;99.90
33881;DHT22;20172;47.530;10.256;2023-09-08T18:54:24;22.90;99.90
33881;DHT22;20172;47.530;10.256;2023-09-08T18:56:54;22.80;99.90
33881;DHT22;20172;47.530;10.256;2023-09-08T18:59:21;22.90;99.90
33881;DHT22;20172;47.530;10.256;2023-09-08T19:01:46;23.00;99.90
33881;DHT22;20172;47.530;10.256;2023-09-08T19:04:12;23.10;99.90
33881;DHT22;20172;47.530;10.256;2023-09-08T19:06:38;23.10;99.90
33881;DHT22;20172;47.530;10.256;2023-09-08T19:09:03;23.20;99.90
33881;DHT22;20172;47.530;10.256;2023-09-08T19:11:29;23.30;99.90
33881;DHT22;20172;47.530;10.256;2023-09-08T19:13:54;23.40;99.90
33881;DHT22;20172;47.530;10.256;2023-09-08T19:16:20;23.20;99.90
33881;DHT22;20172;47.530;10.256;2023-09-08T19:18:45;23.30;99.90
33881;DHT22;20172;47.530;10.256;2023-09-08T19:21:11;23.30;99.90
33881;DHT22;20172;47.530;10.256;2023-09-08T19:23:36;23.40;99.90
33881;DHT22;20172;47.530;10.256;2023-09-08T19:26:05;23.40;99.90
33881;DHT22;20172;47.530;10.256;2023-09-08T19:28:33;23.30;99.90
33881;DHT22;20172;47.530;10.256;2023-09-08T19:30:59;23.30;99.90
33881;DHT22;20172;47.530;10.256;2023-09-08T19:33:24;23.20;99.90
33881;DHT22;20172;47.530;10.256;2023-09-08T19:35:50;23.10;99.90
33881;DHT22;20172;47.530;10.256;2023-09-08T19:38:22;22.90;99.90
33881;DHT22;20172;47.530;10.256;2023-09-08T19:40:50;22.80;99.90
33881;DHT22;20172;47.530;10.256;2023-09-08T19:43:24;22.80;99.90
33881;DHT22;20172;47.530;10.256;2023-09-08T19:45:50;22.60;99.90
33881;DHT22;20172;47.530;10.256;2023-09-08T19:48:15;22.40;99.90
33881;DHT22;20172;47.530;10.256;2023-09-08T19:50:43;22.40;99.90
33881;DHT22;20172;47.530;10.256;2023-09-08T19:53:08;22.40;99.90
33881;DHT22;20172;47.530;10.256;2023-09-08T19:55:34;22.30;99.90
33881;DHT22;20172;47.530;10.256;2023-09-08T19:57:59;22.40;99.90
33881;DHT22;20172;47.530;10.256;2023-09-08T20:00:25;22.30;99.90
33881;DHT22;20172;47.530;10.256;2023-09-08T20:02:50;22.30;99.90
33881;DHT22;20172;47.530;10.256;2023-09-08T20:05:16;22.30;99.90
33881;DHT22;20172;47.530;10.256;2023-09-08T20:07:42;22.30;99.90
33881;DHT22;20172;47.530;10.256;2023-09-08T20:10:11;22.30;99.90
33881;DHT22;20172;47.530;10.256;2023-09-08T20:12:37;22.20;99.90
33881;DHT22;20172;47.530;10.256;2023-09-08T20:15:04;22.10;99.90
33881;DHT22;20172;47.530;10.256;2023-09-08T20:17:30;22.20;99.90
33881;DHT22;20172;47.530;10.256;2023-09-08T20:19:56;22.10;99.90
33881;DHT22;20172;47.530;10.256;2023-09-08T20:22:21;22.10;99.90
33881;DHT22;20172;47.530;10.256;2023-09-08T20:24:46;22.10;99.90
33881;DHT22;20172;47.530;10.256;2023-09-08T20:27:12;21.90;99.90
33881;DHT22;20172;47.530;10.256;2023-09-08T20:29:38;21.80;99.90
33881;DHT22;20172;47.530;10.256;2023-09-08T20:32:03;21.70;99.90
33881;DHT22;20172;47.530;10.256;2023-09-08T20:34:29;21.50;99.90
33881;DHT22;20172;47.530;10.256;2023-09-08T20:36:54;21.40;99.90
33881;DHT22;20172;47.530;10.256;2023-09-08T20:39:20;21.30;99.90
33881;DHT22;20172;47.530;10.256;2023-09-08T20:41:46;21.20;99.90
33881;DHT22;20172;47.530;10.256;2023-09-08T20:44:14;21.30;99.90
33881;DHT22;20172;47.530;10.256;2023-09-08T20:46:39;21.30;99.90
33881;DHT22;20172;47.530;10.256;2023-09-08T20:49:09;21.30;99.90
33881;DHT22;20172;47.530;10.256;2023-09-08T20:51:35;21.50;99.90
33881;DHT22;20172;47.530;10.256;2023-09-08T20:54:00;21.50;99.90
33881;DHT22;20172;47.530;10.256;2023-09-08T20:56:28;21.60;99.90
33881;DHT22;20172;47.530;10.256;2023-09-08T20:58:54;21.50;99.90
33881;DHT22;20172;47.530;10.256;2023-09-08T21:01:20;21.40;99.90
33881;DHT22;20172;47.530;10.256;2023-09-08T21:03:45;21.30;99.90
33881;DHT22;20172;47.530;10.256;2023-09-08T21:06:11;21.40;99.90
33881;DHT22;20172;47.530;10.256;2023-09-08T21:08:37;21.40;99.90
33881;DHT22;20172;47.530;10.256;2023-09-08T21:11:03;21.40;99.90
33881;DHT22;20172;47.530;10.256;2023-09-08T21:13:31;21.40;99.90
33881;DHT22;20172;47.530;10.256;2023-09-08T21:15:57;21.40;99.90